Time;durP1;ratioP1;P1;durP2;ratioP2;P2;SDS_P1;SDS_P2;PMS_P1;PMS_P2;Temp;Humidity;BMP_temperature;BMP_pressure;BME280_temperature;BME280_humidity;BME280_pressure;Samples;Min_cycle;Max_cycle;Signal;HPM_P1;HPM_P2
2021/10/05 00:01:32;;;;;;;;;1.00;1.00;;;;;;;;4937637;28;45980;-78
2021/10/05 00:03:57;;;;;;;;;0.00;0.00;;;;;;;;4932555;28;45897;-78
2021/10/05 00:06:22;;;;;;;;;3.75;1.00;;;;;;;;4933623;28;45726;-78
2021/10/05 00:08:47;;;;;;;;;1.00;1.00;;;;;;;;4926350;28;46662;-78
2021/10/05 00:11:13;;;;;;;;;1.00;1.00;;;;;;;;4936823;28;45647;-78
2021/10/05 00:13:40;;;;;;;;;1.25;0.25;;;;;;;;4936475;28;45531;-78
2021/10/05 00:16:05;;;;;;;;;1.00;1.00;;;;;;;;4940225;28;45538;-78
2021/10/05 00:18:30;;;;;;;;;2.00;1.00;;;;;;;;4928666;28;46942;-77
2021/10/05 00:20:56;;;;;;;;;3.00;1.00;;;;;;;;4937082;28;45698;-77
2021/10/05 00:23:21;;;;;;;;;1.00;1.00;;;;;;;;4942613;28;45895;-77
2021/10/05 00:25:46;;;;;;;;;1.33;1.33;;;;;;;;4940304;28;46331;-77
2021/10/05 00:28:11;;;;;;;;;1.75;1.75;;;;;;;;4936137;28;45882;-76
2021/10/05 00:30:37;;;;;;;;;2.00;1.00;;;;;;;;4936136;28;45607;-77
2021/10/05 00:33:03;;;;;;;;;1.33;1.33;;;;;;;;4938065;28;46070;-77
2021/10/05 00:35:28;;;;;;;;;1.00;1.00;;;;;;;;4929195;28;45477;-77
2021/10/05 00:37:53;;;;;;;;;2.00;1.00;;;;;;;;4939896;28;45628;-77
2021/10/05 00:40:19;;;;;;;;;1.00;1.00;;;;;;;;4920296;28;46290;-77
2021/10/05 00:42:44;;;;;;;;;1.67;1.00;;;;;;;;4938713;28;51730;-77
2021/10/05 00:45:09;;;;;;;;;2.00;0.00;;;;;;;;4939212;28;45907;-77
2021/10/05 00:47:35;;;;;;;;;2.25;0.75;;;;;;;;4934146;28;46754;-77
2021/10/05 00:50:00;;;;;;;;;1.00;1.00;;;;;;;;4939415;28;45808;-78
2021/10/05 00:52:25;;;;;;;;;2.00;1.00;;;;;;;;4938484;28;45372;-78
2021/10/05 00:54:51;;;;;;;;;1.00;1.00;;;;;;;;4926938;28;45690;-78
2021/10/05 00:57:16;;;;;;;;;1.00;0.00;;;;;;;;4937690;28;45559;-78
2021/10/05 00:59:42;;;;;;;;;1.00;0.00;;;;;;;;4936070;28;45843;-79
2021/10/05 01:02:09;;;;;;;;;0.00;0.00;;;;;;;;4937810;28;45665;-78
2021/10/05 01:04:34;;;;;;;;;0.75;0.75;;;;;;;;4933890;28;45688;-77
2021/10/05 01:07:01;;;;;;;;;0.50;0.50;;;;;;;;4932267;28;49748;-78
2021/10/05 01:09:27;;;;;;;;;1.00;1.00;;;;;;;;4940733;28;45929;-78
2021/10/05 01:11:53;;;;;;;;;0.00;0.00;;;;;;;;4938281;28;46291;-78
2021/10/05 01:14:18;;;;;;;;;2.00;1.00;;;;;;;;4940519;28;45645;-78
2021/10/05 01:16:43;;;;;;;;;1.00;1.00;;;;;;;;4937568;28;45555;-77
2021/10/05 01:19:09;;;;;;;;;1.67;1.00;;;;;;;;4940463;28;46086;-78
2021/10/05 01:21:34;;;;;;;;;1.00;1.00;;;;;;;;4935403;28;45627;-79
2021/10/05 01:24:10;;;;;;;;;2.67;1.00;;;;;;;;5128071;23;46376;-78
2021/10/05 01:26:36;;;;;;;;;0.75;0.75;;;;;;;;4943397;28;46693;-78
2021/10/05 01:29:04;;;;;;;;;1.00;1.00;;;;;;;;4944446;28;45726;-77
2021/10/05 01:31:30;;;;;;;;;1.50;1.00;;;;;;;;4928860;28;45626;-78
2021/10/05 01:33:56;;;;;;;;;1.00;1.00;;;;;;;;4917924;28;50044;-78
2021/10/05 01:36:21;;;;;;;;;2.00;1.00;;;;;;;;4938540;28;45809;-77
2021/10/05 01:38:46;;;;;;;;;1.00;1.00;;;;;;;;4934221;28;46236;-78
2021/10/05 01:41:13;;;;;;;;;1.67;1.00;;;;;;;;4936568;28;45797;-78
2021/10/05 01:43:38;;;;;;;;;1.00;1.00;;;;;;;;4936984;28;45845;-78
2021/10/05 01:46:04;;;;;;;;;4.00;1.00;;;;;;;;4937535;28;46040;-78
2021/10/05 01:48:29;;;;;;;;;2.00;0.75;;;;;;;;4918306;28;45646;-78
2021/10/05 01:50:54;;;;;;;;;1.00;1.00;;;;;;;;4938963;28;45536;-78
2021/10/05 01:55:54;;;;;;;;;1.75;1.75;;;;;;;;5406396;22;45867;-78
2021/10/05 01:58:20;;;;;;;;;2.00;1.00;;;;;;;;4949950;28;45651;-78
2021/10/05 02:00:45;;;;;;;;;2.00;1.00;;;;;;;;4952278;28;45578;-77
2021/10/05 02:03:13;;;;;;;;;2.25;0.00;;;;;;;;4947968;28;45605;-78
2021/10/05 02:05:40;;;;;;;;;3.00;1.00;;;;;;;;4949264;28;45948;-78
2021/10/05 02:08:06;;;;;;;;;0.25;0.25;;;;;;;;4951450;28;45652;-78
2021/10/05 02:10:31;;;;;;;;;0.50;0.50;;;;;;;;4948677;28;45638;-78
2021/10/05 02:12:56;;;;;;;;;1.67;1.00;;;;;;;;4953708;28;45874;-78
2021/10/05 02:15:21;;;;;;;;;0.75;0.75;;;;;;;;4942796;28;48497;-76
2021/10/05 02:17:47;;;;;;;;;0.00;0.00;;;;;;;;4945803;28;46228;-78
2021/10/05 02:20:12;;;;;;;;;2.00;1.00;;;;;;;;4954043;28;45573;-78
2021/10/05 02:22:37;;;;;;;;;0.75;0.75;;;;;;;;4929272;28;46233;-77
2021/10/05 02:25:03;;;;;;;;;2.50;1.00;;;;;;;;4951456;28;46885;-78
2021/10/05 02:27:28;;;;;;;;;1.00;1.00;;;;;;;;4953338;28;45551;-78
2021/10/05 02:29:53;;;;;;;;;2.75;1.25;;;;;;;;4953855;28;46393;-77
2021/10/05 02:32:18;;;;;;;;;2.00;0.75;;;;;;;;4951518;28;45547;-77
2021/10/05 02:34:44;;;;;;;;;2.25;1.00;;;;;;;;4944018;28;55145;-78
2021/10/05 02:37:10;;;;;;;;;1.00;1.00;;;;;;;;4959578;28;45636;-78
2021/10/05 02:39:35;;;;;;;;;1.00;1.00;;;;;;;;4950834;28;46660;-78
2021/10/05 02:42:00;;;;;;;;;2.00;1.25;;;;;;;;4948945;28;45550;-77
2021/10/05 02:44:25;;;;;;;;;1.75;1.00;;;;;;;;4950584;28;45920;-78
2021/10/05 02:46:51;;;;;;;;;1.00;1.00;;;;;;;;4949506;28;46019;-77
2021/10/05 02:49:17;;;;;;;;;2.25;1.75;;;;;;;;4957004;28;48813;-78
2021/10/05 02:51:42;;;;;;;;;0.00;0.00;;;;;;;;4955272;28;45823;-78
2021/10/05 02:54:08;;;;;;;;;1.00;1.00;;;;;;;;4957834;28;45980;-77
2021/10/05 02:56:33;;;;;;;;;1.00;1.00;;;;;;;;4949739;28;45676;-77
2021/10/05 02:58:59;;;;;;;;;1.75;1.00;;;;;;;;4954257;28;45690;-77
2021/10/05 03:01:24;;;;;;;;;4.75;2.00;;;;;;;;4940451;28;45580;-78
2021/10/05 03:03:49;;;;;;;;;0.75;0.75;;;;;;;;4953705;28;45830;-78
2021/10/05 03:06:15;;;;;;;;;0.50;0.50;;;;;;;;4952929;28;45662;-78
2021/10/05 03:08:42;;;;;;;;;1.75;1.00;;;;;;;;4950616;28;45609;-77
2021/10/05 03:11:07;;;;;;;;;2.75;1.00;;;;;;;;4955687;28;45635;-78
2021/10/05 03:13:33;;;;;;;;;1.00;1.00;;;;;;;;4954089;28;45562;-77
2021/10/05 03:15:59;;;;;;;;;1.50;1.50;;;;;;;;4955329;28;46065;-78
2021/10/05 03:18:25;;;;;;;;;2.00;2.00;;;;;;;;4953269;28;45574;-78
2021/10/05 03:20:50;;;;;;;;;1.00;1.00;;;;;;;;4953136;28;45601;-78
2021/10/05 03:23:15;;;;;;;;;1.00;1.00;;;;;;;;4954956;28;45600;-78
2021/10/05 03:25:41;;;;;;;;;0.67;0.00;;;;;;;;4935668;28;45726;-78
2021/10/05 03:28:06;;;;;;;;;0.00;0.00;;;;;;;;4955509;28;45654;-78
2021/10/05 03:30:32;;;;;;;;;1.75;1.00;;;;;;;;4952790;28;45659;-77
2021/10/05 03:32:57;;;;;;;;;2.33;1.00;;;;;;;;4953044;28;46376;-78
2021/10/05 03:35:22;;;;;;;;;5.00;2.00;;;;;;;;4951967;28;45476;-77
2021/10/05 03:37:47;;;;;;;;;1.67;1.67;;;;;;;;4949723;28;45484;-77
2021/10/05 03:40:13;;;;;;;;;1.00;1.00;;;;;;;;4956348;28;46344;-78
2021/10/05 03:42:39;;;;;;;;;3.00;0.50;;;;;;;;4952463;28;46737;-78
2021/10/05 03:45:04;;;;;;;;;1.25;1.25;;;;;;;;4955113;28;45644;-78
2021/10/05 03:47:31;;;;;;;;;4.50;1.75;;;;;;;;4955901;28;46096;-77
2021/10/05 03:49:56;;;;;;;;;2.25;2.25;;;;;;;;4954435;28;45767;-77
2021/10/05 03:52:21;;;;;;;;;2.00;1.00;;;;;;;;4955607;28;45711;-77
2021/10/05 03:54:46;;;;;;;;;0.67;0.67;;;;;;;;4956288;28;46346;-77
2021/10/05 03:57:12;;;;;;;;;1.75;1.00;;;;;;;;4954673;28;45694;-77
2021/10/05 03:59:37;;;;;;;;;2.75;1.25;;;;;;;;4951550;28;45503;-77
2021/10/05 04:02:02;;;;;;;;;1.00;1.00;;;;;;;;4940854;28;48460;-77
2021/10/05 04:04:27;;;;;;;;;2.00;2.00;;;;;;;;4953096;28;45883;-77
2021/10/05 04:06:53;;;;;;;;;1.00;1.00;;;;;;;;4955475;28;47668;-77
2021/10/05 04:09:18;;;;;;;;;2.50;0.25;;;;;;;;4954694;28;46204;-77
2021/10/05 04:11:43;;;;;;;;;0.75;0.75;;;;;;;;4936816;28;47403;-77
2021/10/05 04:14:09;;;;;;;;;2.50;1.25;;;;;;;;4949016;28;46282;-77
2021/10/05 04:16:34;;;;;;;;;1.00;1.00;;;;;;;;4954383;28;45510;-77
2021/10/05 04:18:59;;;;;;;;;0.00;0.00;;;;;;;;4953519;28;45656;-77
2021/10/05 04:21:25;;;;;;;;;2.00;0.25;;;;;;;;4956292;28;51458;-77
2021/10/05 04:23:50;;;;;;;;;2.00;0.50;;;;;;;;4954093;28;45811;-77
2021/10/05 04:26:15;;;;;;;;;1.00;1.00;;;;;;;;4959456;28;45560;-77
2021/10/05 04:28:40;;;;;;;;;1.25;1.00;;;;;;;;4960449;28;45591;-77
2021/10/05 04:31:06;;;;;;;;;4.00;0.67;;;;;;;;4960922;28;45896;-77
2021/10/05 04:33:31;;;;;;;;;2.00;0.50;;;;;;;;4959402;28;45479;-77
2021/10/05 04:35:56;;;;;;;;;1.75;1.00;;;;;;;;4944747;28;45631;-78
2021/10/05 04:38:22;;;;;;;;;1.67;1.00;;;;;;;;4956599;28;45424;-77
2021/10/05 04:40:47;;;;;;;;;3.00;1.00;;;;;;;;5627849;23;47274;-78
2021/10/05 04:43:12;;;;;;;;;1.00;1.00;;;;;;;;4919478;28;45936;-77
2021/10/05 04:45:38;;;;;;;;;3.00;2.00;;;;;;;;4918773;28;45550;-77
2021/10/05 04:48:06;;;;;;;;;3.00;3.00;;;;;;;;4919411;28;45542;-77
2021/10/05 04:50:32;;;;;;;;;1.50;1.50;;;;;;;;4918806;28;45601;-77
2021/10/05 04:52:57;;;;;;;;;2.00;2.00;;;;;;;;4919313;28;46337;-78
2021/10/05 04:55:23;;;;;;;;;0.67;0.67;;;;;;;;4923079;28;45575;-78
2021/10/05 04:57:48;;;;;;;;;2.75;2.00;;;;;;;;4904800;28;52855;-78
2021/10/05 05:00:13;;;;;;;;;2.00;1.00;;;;;;;;4917946;28;48771;-78
2021/10/05 05:02:39;;;;;;;;;1.00;1.00;;;;;;;;4906035;28;47210;-77
2021/10/05 05:05:05;;;;;;;;;2.00;2.00;;;;;;;;4917822;28;45649;-78
2021/10/05 05:07:30;;;;;;;;;4.25;2.25;;;;;;;;4915322;28;51378;-77
2021/10/05 05:09:56;;;;;;;;;3.50;2.25;;;;;;;;4908505;28;46906;-77
2021/10/05 05:12:21;;;;;;;;;4.50;3.00;;;;;;;;4916816;28;55226;-78
2021/10/05 05:14:46;;;;;;;;;4.00;2.33;;;;;;;;4908220;28;45829;-77
2021/10/05 05:17:11;;;;;;;;;6.33;4.00;;;;;;;;4912303;28;45836;-78
2021/10/05 05:19:37;;;;;;;;;6.00;3.25;;;;;;;;4912095;28;45570;-78
2021/10/05 05:22:02;;;;;;;;;3.67;2.00;;;;;;;;4929204;28;45677;-78
2021/10/05 05:24:27;;;;;;;;;6.25;3.25;;;;;;;;4930003;28;53312;-77
2021/10/05 05:26:53;;;;;;;;;6.00;3.00;;;;;;;;4925971;28;45667;-78
2021/10/05 05:29:18;;;;;;;;;6.00;3.00;;;;;;;;4912277;28;46246;-78
2021/10/05 05:31:44;;;;;;;;;5.00;4.00;;;;;;;;4913783;28;46557;-78
2021/10/05 05:34:09;;;;;;;;;7.00;6.00;;;;;;;;4926143;28;46421;-78
2021/10/05 05:36:34;;;;;;;;;7.25;4.00;;;;;;;;4929644;28;45627;-78
2021/10/05 05:39:00;;;;;;;;;4.00;4.00;;;;;;;;4930504;28;45603;-78
2021/10/05 05:41:25;;;;;;;;;7.00;5.50;;;;;;;;4917966;28;47681;-77
2021/10/05 05:43:50;;;;;;;;;9.00;6.25;;;;;;;;4929498;28;45807;-78
2021/10/05 05:46:16;;;;;;;;;9.25;9.25;;;;;;;;4928163;28;45812;-77
2021/10/05 05:48:41;;;;;;;;;11.00;6.33;;;;;;;;4928654;28;45546;-78
2021/10/05 05:51:06;;;;;;;;;6.67;6.67;;;;;;;;4917735;28;46188;-77
2021/10/05 05:53:32;;;;;;;;;9.75;8.00;;;;;;;;4934711;28;45619;-77
2021/10/05 05:55:57;;;;;;;;;10.50;9.00;;;;;;;;4928344;28;45752;-78
2021/10/05 05:58:23;;;;;;;;;7.50;7.25;;;;;;;;4920209;28;46269;-77
2021/10/05 06:00:48;;;;;;;;;10.00;9.00;;;;;;;;4929421;28;45578;-78
2021/10/05 06:03:14;;;;;;;;;11.75;6.25;;;;;;;;4935103;28;45819;-76
2021/10/05 06:05:39;;;;;;;;;8.25;7.25;;;;;;;;4934852;28;46043;-76
2021/10/05 06:08:05;;;;;;;;;9.00;6.75;;;;;;;;4936711;28;46187;-75
2021/10/05 06:10:30;;;;;;;;;6.25;5.50;;;;;;;;4939409;28;46002;-78
2021/10/05 06:12:56;;;;;;;;;7.25;7.25;;;;;;;;4944083;28;46365;-78
2021/10/05 06:15:22;;;;;;;;;8.25;6.25;;;;;;;;4946174;28;45839;-77
2021/10/05 06:17:49;;;;;;;;;6.25;5.00;;;;;;;;4945942;28;46023;-78
2021/10/05 06:20:15;;;;;;;;;5.25;3.25;;;;;;;;4950023;28;45718;-78
2021/10/05 06:22:41;;;;;;;;;5.50;4.75;;;;;;;;4935907;28;45941;-78
2021/10/05 06:25:08;;;;;;;;;3.00;3.00;;;;;;;;4936918;28;45626;-78
2021/10/05 06:27:33;;;;;;;;;3.00;3.00;;;;;;;;4937791;28;46132;-77
2021/10/05 06:29:59;;;;;;;;;6.00;3.33;;;;;;;;4943511;28;45523;-77
2021/10/05 06:32:25;;;;;;;;;4.50;4.00;;;;;;;;4943362;28;45612;-77
2021/10/05 06:34:50;;;;;;;;;5.00;4.50;;;;;;;;4938991;28;45494;-77
2021/10/05 06:39:51;;;;;;;;;2.50;2.50;;;;;;;;4801745;23;6245765;-78
2021/10/05 06:42:16;;;;;;;;;4.25;2.00;;;;;;;;4954770;28;46082;-77
2021/10/05 06:44:42;;;;;;;;;2.00;2.00;;;;;;;;4944345;28;45868;-77
2021/10/05 06:47:07;;;;;;;;;1.50;1.50;;;;;;;;4957563;28;45780;-77
2021/10/05 06:49:32;;;;;;;;;1.00;1.00;;;;;;;;4955368;28;45820;-77
2021/10/05 06:51:58;;;;;;;;;5.00;2.25;;;;;;;;4951838;28;45811;-78
2021/10/05 06:58:33;;;;;;;;;;;;;;;;;;2559815;28;227789295;-77
2021/10/05 07:00:58;;;;;;;;;4.00;2.25;;;;;;;;4989822;28;13661;-77
2021/10/05 07:06:01;;;;;;;;;4.00;2.00;;;;;;;;6046445;23;173513;-77
2021/10/05 07:14:32;;;;;;;;;5.50;0.00;;;;;;;;4478156;28;204076288;-77
2021/10/05 07:31:34;;;;;;;;;2.00;2.00;;;;;;;;175261;27;261155199;-78
2021/10/05 07:40:26;;;;;;;;;2.00;2.00;;;;;;;;2;252093020;252093020;-79
2021/10/05 07:48:41;;;;;;;;;1.50;1.50;;;;;;;;2;261125592;261125592;-78
2021/10/05 07:57:33;;;;;;;;;0.00;0.00;;;;;;;;2;252089457;252089457;-77
2021/10/05 08:05:48;;;;;;;;;2.50;2.50;;;;;;;;2;261089115;261089115;-77
2021/10/05 08:14:39;;;;;;;;;0.00;0.00;;;;;;;;2;252087588;252087588;-78
2021/10/05 08:22:55;;;;;;;;;2.00;2.00;;;;;;;;2;261104228;261104228;-77
2021/10/05 08:31:47;;;;;;;;;4.50;4.50;;;;;;;;2;252098948;252098948;-77
2021/10/05 08:40:04;;;;;;;;;3.50;3.50;;;;;;;;2;261109975;261109975;-77
2021/10/05 08:48:56;;;;;;;;;2.00;2.00;;;;;;;;2;252102268;252102268;-77
2021/10/05 08:57:11;;;;;;;;;4.00;4.00;;;;;;;;2;261122910;261122910;-78
2021/10/05 09:06:13;;;;;;;;;1.00;1.00;;;;;;;;2;252108456;252108456;-78
2021/10/05 09:14:35;;;;;;;;;0.50;0.50;;;;;;;;2;261100813;261100813;-79
2021/10/05 09:23:26;;;;;;;;;5.50;4.00;;;;;;;;2;252104086;252104086;-78
2021/10/05 09:32:32;;;;;;;;;0.00;0.00;;;;;;;;1404640;28;77877464;-78
2021/10/05 09:34:57;;;;;;;;;0.00;0.00;;;;;;;;3587278;28;8859162;-78
2021/10/05 09:37:29;;;;;;;;;1.00;0.00;;;;;;;;4248529;28;10360927;-78
2021/10/05 09:39:57;;;;;;;;;1.00;1.00;;;;;;;;4312495;28;4359107;-78
2021/10/05 09:42:29;;;;;;;;;22.00;20.00;;;;;;;;3370856;28;17716397;-78
2021/10/05 09:44:59;;;;;;;;;28.75;27.00;;;;;;;;4518437;28;8109465;-81
2021/10/05 09:47:45;;;;;;;;;8.50;7.00;;;;;;;;3631782;28;17863149;-77
2021/10/05 09:50:27;;;;;;;;;0.00;0.00;;;;;;;;4722260;28;5857989;-77
2021/10/05 09:52:53;;;;;;;;;6.50;3.25;;;;;;;;4615771;28;4508759;-77
2021/10/05 09:55:19;;;;;;;;;0.00;0.00;;;;;;;;4033073;28;15011455;-77
2021/10/05 09:58:33;;;;;;;;;;;;;;;;;;700740;28;173618063;-77
2021/10/05 10:00:58;;;;;;;;;2.25;1.50;;;;;;;;4511022;28;8862483;-82
2021/10/05 10:10:57;;;;;;;;;;;;;;;;;;;;;
2021/10/05 10:19:52;;;;;;;;;8.50;8.50;;;;;;;;2;252108484;252108484;-95
2021/10/05 10:28:38;;;;;;;;;0.00;0.00;;;;;;;;2;261092653;261092653;-95
2021/10/05 10:37:40;;;;;;;;;0.00;0.00;;;;;;;;2;252088601;252088601;-84
2021/10/05 10:45:57;;;;;;;;;9.50;1.00;;;;;;;;2;261103350;261103350;-79
2021/10/05 10:54:52;;;;;;;;;0.00;0.00;;;;;;;;2;252108273;252108273;-79
2021/10/05 11:03:07;;;;;;;;;1.00;1.00;;;;;;;;2;261105997;261105997;-82
2021/10/05 11:12:00;;;;;;;;;0.50;0.50;;;;;;;;2;252087683;252087683;-81
2021/10/05 11:20:15;;;;;;;;;0.50;0.50;;;;;;;;2;261099606;261099606;-87
2021/10/05 11:29:07;;;;;;;;;0.50;0.50;;;;;;;;2;252089816;252089816;-81
2021/10/05 11:37:25;;;;;;;;;0.50;0.50;;;;;;;;2;261117613;261117613;-80
2021/10/05 11:46:20;;;;;;;;;1.00;1.00;;;;;;;;2;252085251;252085251;-80
2021/10/05 11:54:36;;;;;;;;;0.00;0.00;;;;;;;;2;261094684;261094684;-78
2021/10/05 12:03:27;;;;;;;;;3.00;0.00;;;;;;;;2;252092355;252092355;-78
2021/10/05 12:11:44;;;;;;;;;3.50;3.50;;;;;;;;2;261104943;261104943;-78
2021/10/05 12:20:35;;;;;;;;;1.00;1.00;;;;;;;;2;252092231;252092231;-77
2021/10/05 12:29:14;;;;;;;;;0.50;0.50;;;;;;;;2;261102257;261102257;-78
2021/10/05 12:38:40;;;;;;;;;0.00;0.00;;;;;;;;2;252087408;252087408;-80
2021/10/05 12:46:55;;;;;;;;;0.00;0.00;;;;;;;;2;261163412;261163412;-81
2021/10/05 12:55:47;;;;;;;;;1.00;1.00;;;;;;;;2;252109714;252109714;-83
2021/10/05 13:03:35;;;;;;;;;0.50;0.50;;;;;;;;2;229590648;229590648;-83
2021/10/05 13:12:26;;;;;;;;;0.00;0.00;;;;;;;;2;252087362;252087362;-80
2021/10/05 13:20:42;;;;;;;;;0.00;0.00;;;;;;;;2;261109687;261109687;-81
